createdAt,value
2019-05-23T00:00:15.743Z,23.80
2019-05-23T00:01:38.084Z,23.80
2019-05-23T00:02:59.894Z,23.80
2019-05-23T00:04:21.209Z,23.80
2019-05-23T00:05:42.584Z,23.80
2019-05-23T00:07:04.325Z,23.80
2019-05-23T00:08:25.735Z,23.80
2019-05-23T00:09:47.242Z,23.80
2019-05-23T00:11:13.569Z,23.80
2019-05-23T00:12:35.596Z,23.80
2019-05-23T00:13:58.779Z,23.80
2019-05-23T00:15:26.591Z,23.80
2019-05-23T00:16:48.192Z,23.80
2019-05-23T00:18:09.340Z,23.80
2019-05-23T00:19:30.899Z,23.80
2019-05-23T00:20:52.951Z,23.80
2019-05-23T00:22:14.671Z,23.80
2019-05-23T00:23:36.791Z,23.80
2019-05-23T00:24:58.609Z,23.80
2019-05-23T00:26:20.223Z,23.80
2019-05-23T00:27:41.732Z,23.80
2019-05-23T00:29:09.885Z,23.80
2019-05-23T00:30:25.948Z,23.80
2019-05-23T00:31:47.291Z,23.80
2019-05-23T00:33:08.911Z,23.80
2019-05-23T00:34:31.418Z,23.80
2019-05-23T00:35:52.715Z,23.80
2019-05-23T00:37:14.552Z,23.80
2019-05-23T00:38:36.282Z,23.80
2019-05-23T00:39:58.100Z,23.80
2019-05-23T00:41:20.931Z,23.80
2019-05-23T00:42:42.123Z,23.80
2019-05-23T00:44:03.731Z,23.80
2019-05-23T00:45:25.445Z,23.80
2019-05-23T00:46:47.293Z,23.80
2019-05-23T00:48:08.701Z,23.80
2019-05-23T00:49:30.519Z,23.80
2019-05-23T00:50:52.135Z,23.80
2019-05-23T00:52:13.655Z,23.80
2019-05-23T00:53:35.159Z,23.80
2019-05-23T00:54:56.551Z,23.80
2019-05-23T00:56:18.412Z,23.80
2019-05-23T00:57:40.134Z,23.80
2019-05-23T00:59:01.815Z,23.80
2019-05-23T01:00:23.119Z,23.80
2019-05-23T01:01:44.856Z,23.80
2019-05-23T01:03:07.245Z,23.80
2019-05-23T01:04:28.546Z,23.80
2019-05-23T01:05:49.981Z,23.80
2019-05-23T01:07:11.390Z,23.80
2019-05-23T01:08:32.800Z,23.80
2019-05-23T01:09:54.437Z,23.80
2019-05-23T01:11:16.283Z,23.80
2019-05-23T01:12:37.439Z,23.70
2019-05-23T01:13:58.844Z,23.80
2019-05-23T01:15:21.369Z,23.80
2019-05-23T01:16:42.379Z,23.80
2019-05-23T01:18:04.279Z,23.80
2019-05-23T01:19:25.990Z,23.80
2019-05-23T01:20:47.602Z,23.80
2019-05-23T01:22:09.692Z,23.80
2019-05-23T01:23:31.369Z,23.80
2019-05-23T01:24:53.080Z,23.70
2019-05-23T01:26:15.103Z,23.70
2019-05-23T01:27:36.807Z,23.80
2019-05-23T01:28:58.803Z,23.80
2019-05-23T01:30:20.659Z,23.80
2019-05-23T01:31:42.501Z,23.80
2019-05-23T01:33:04.297Z,23.70
2019-05-23T01:34:26.095Z,23.80
2019-05-23T01:35:47.544Z,23.80
2019-05-23T01:37:08.593Z,23.80
2019-05-23T01:38:30.855Z,23.80
2019-05-23T01:39:52.467Z,23.70
2019-05-23T01:41:13.818Z,23.80
2019-05-23T01:42:35.719Z,23.80
2019-05-23T01:43:57.101Z,23.80
2019-05-23T01:45:18.919Z,23.80
2019-05-23T01:46:40.723Z,23.70
2019-05-23T01:48:02.761Z,23.80
2019-05-23T01:49:24.065Z,23.80
2019-05-23T01:50:46.090Z,23.70
2019-05-23T01:52:07.903Z,23.70
2019-05-23T01:53:29.709Z,23.80
2019-05-23T01:54:51.469Z,23.70
2019-05-23T01:56:12.722Z,23.80
2019-05-23T01:57:34.885Z,23.80
2019-05-23T01:58:56.373Z,23.80
2019-05-23T02:00:17.691Z,23.80
2019-05-23T02:01:38.894Z,23.70
2019-05-23T02:03:00.711Z,23.70
2019-05-23T02:04:22.638Z,23.80
2019-05-23T02:05:44.231Z,23.80
2019-05-23T02:07:05.874Z,23.80
2019-05-23T02:08:27.679Z,23.80
2019-05-23T02:09:49.504Z,23.80
2019-05-23T02:11:10.903Z,23.70
2019-05-23T02:12:33.828Z,23.70
2019-05-23T02:13:55.053Z,23.80
2019-05-23T02:15:16.912Z,23.70
2019-05-23T02:16:38.894Z,23.70
2019-05-23T02:18:00.405Z,23.70
2019-05-23T02:19:21.711Z,23.70
2019-05-23T02:20:43.228Z,23.70
2019-05-23T02:22:05.015Z,23.70
2019-05-23T02:23:26.859Z,23.70
2019-05-23T02:24:47.945Z,23.70
2019-05-23T02:26:09.499Z,23.70
2019-05-23T02:27:30.999Z,23.70
2019-05-23T02:28:52.799Z,23.70
2019-05-23T02:30:32.968Z,23.70
2019-05-23T02:31:40.133Z,23.70
2019-05-23T02:33:01.621Z,23.70
2019-05-23T02:34:23.802Z,23.70
2019-05-23T02:35:45.577Z,23.70
2019-05-23T02:37:07.088Z,23.70
2019-05-23T02:38:28.681Z,23.70
2019-05-23T02:39:50.189Z,23.70
2019-05-23T02:41:12.070Z,23.70
2019-05-23T02:42:33.953Z,23.70
2019-05-23T02:43:55.586Z,23.70
2019-05-23T02:45:17.996Z,23.70
2019-05-23T02:46:39.492Z,23.70
2019-05-23T02:48:01.624Z,23.70
2019-05-23T02:49:24.650Z,23.80
2019-05-23T02:50:49.570Z,23.70
2019-05-23T02:52:32.894Z,23.70
2019-05-23T02:53:54.608Z,23.70
2019-05-23T02:55:25.431Z,23.70
2019-05-23T02:56:46.827Z,23.70
2019-05-23T02:58:11.737Z,23.70
2019-05-23T02:59:42.154Z,23.70
2019-05-23T03:01:27.430Z,23.70
2019-05-23T03:02:48.732Z,23.70
2019-05-23T03:04:10.346Z,23.70
2019-05-23T03:05:32.673Z,23.70
2019-05-23T03:06:53.965Z,23.70
2019-05-23T03:08:15.491Z,23.70
2019-05-23T03:09:37.315Z,23.70
2019-05-23T03:11:26.264Z,23.70
2019-05-23T03:12:47.881Z,23.70
2019-05-23T03:14:09.068Z,23.70
2019-05-23T03:15:30.648Z,23.70
2019-05-23T03:16:52.856Z,23.70
2019-05-23T03:18:14.365Z,23.70
2019-05-23T03:19:44.783Z,23.70
2019-05-23T03:21:06.346Z,23.70
2019-05-23T03:22:29.288Z,23.70
2019-05-23T03:23:51.437Z,23.70
2019-05-23T03:25:16.202Z,23.70
2019-05-23T03:26:41.420Z,23.70
2019-05-23T03:28:03.959Z,23.70
2019-05-23T03:29:25.982Z,23.70
2019-05-23T03:30:47.591Z,23.70
2019-05-23T03:32:09.355Z,23.70
2019-05-23T03:33:31.126Z,23.70
2019-05-23T03:34:52.584Z,23.70
2019-05-23T03:36:14.352Z,23.70
2019-05-23T03:37:36.089Z,23.70
2019-05-23T03:38:57.468Z,23.70
2019-05-23T03:40:20.433Z,23.70
2019-05-23T03:41:41.802Z,23.70
2019-05-23T03:43:03.835Z,23.70
2019-05-23T03:44:25.165Z,23.70
2019-05-23T03:45:46.797Z,23.70
2019-05-23T03:47:08.156Z,23.70
2019-05-23T03:48:29.974Z,23.70
2019-05-23T03:49:52.532Z,23.70
2019-05-23T03:51:14.031Z,23.70
2019-05-23T03:52:35.797Z,23.70
2019-05-23T03:53:57.681Z,23.70
2019-05-23T03:55:18.885Z,23.70
2019-05-23T03:56:41.325Z,23.70
2019-05-23T03:58:02.933Z,23.70
2019-05-23T03:59:25.555Z,23.70
2019-05-23T04:00:47.031Z,23.70
2019-05-23T04:02:08.633Z,23.70
2019-05-23T04:03:30.409Z,23.70
2019-05-23T04:04:52.226Z,23.70
2019-05-23T04:06:14.557Z,23.80
2019-05-23T04:07:37.030Z,23.80
2019-05-23T04:08:58.505Z,23.80
2019-05-23T04:10:20.216Z,23.80
2019-05-23T04:11:42.519Z,23.80
2019-05-23T04:13:03.828Z,23.80
2019-05-23T04:14:25.157Z,23.80
2019-05-23T04:15:47.004Z,23.80
2019-05-23T04:17:08.564Z,23.80
2019-05-23T04:18:30.101Z,23.80
2019-05-23T04:19:51.414Z,23.80
2019-05-23T04:21:13.328Z,23.80
2019-05-23T04:22:35.619Z,23.80
2019-05-23T04:23:57.269Z,23.80
2019-05-23T04:25:20.009Z,23.80
2019-05-23T04:26:41.624Z,23.90
2019-05-23T04:28:04.845Z,23.90
2019-05-23T04:29:26.182Z,23.90
2019-05-23T04:30:47.599Z,23.90
2019-05-23T04:32:09.361Z,23.90
2019-05-23T04:33:31.246Z,23.90
2019-05-23T04:34:53.045Z,23.90
2019-05-23T04:36:14.763Z,23.90
2019-05-23T04:37:36.198Z,23.90
2019-05-23T04:38:57.783Z,23.90
2019-05-23T04:40:19.605Z,24.00
2019-05-23T04:41:41.070Z,24.00
2019-05-23T04:43:02.828Z,24.00
2019-05-23T04:44:24.212Z,24.00
2019-05-23T04:45:46.021Z,24.00
2019-05-23T04:47:07.484Z,24.00
2019-05-23T04:48:28.873Z,24.00
2019-05-23T04:49:50.485Z,24.10
2019-05-23T04:51:12.279Z,24.10
2019-05-23T04:52:34.427Z,24.10
2019-05-23T04:53:55.840Z,24.20
2019-05-23T04:55:17.529Z,24.10
2019-05-23T04:56:39.668Z,24.20
2019-05-23T04:58:04.300Z,24.20
2019-05-23T04:59:24.032Z,24.20
2019-05-23T05:00:45.723Z,24.20
2019-05-23T05:02:23.088Z,24.20
2019-05-23T05:03:30.414Z,24.20
2019-05-23T05:04:51.919Z,24.30
2019-05-23T05:06:13.846Z,24.30
2019-05-23T05:07:36.015Z,24.30
2019-05-23T05:08:57.988Z,24.40
2019-05-23T05:10:21.449Z,24.50
2019-05-23T05:11:43.466Z,24.50
2019-05-23T05:13:05.057Z,24.60
2019-05-23T05:14:26.898Z,24.70
2019-05-23T05:15:48.207Z,24.70
2019-05-23T05:17:09.891Z,24.80
2019-05-23T05:18:31.429Z,24.80
2019-05-23T05:19:53.147Z,24.90
2019-05-23T05:21:14.452Z,24.90
2019-05-23T05:22:37.095Z,25.00
2019-05-23T05:23:58.696Z,25.00
2019-05-23T05:25:20.272Z,25.10
2019-05-23T05:26:41.490Z,25.10
2019-05-23T05:28:03.954Z,25.20
2019-05-23T05:29:25.467Z,25.20
2019-05-23T05:30:46.976Z,25.20
2019-05-23T05:32:08.347Z,25.20
2019-05-23T05:33:30.076Z,25.20
2019-05-23T05:34:52.026Z,25.20
2019-05-23T05:36:13.430Z,25.30
2019-05-23T05:37:35.166Z,25.30
2019-05-23T05:38:56.861Z,25.40
2019-05-23T05:40:18.270Z,25.40
2019-05-23T05:41:40.108Z,25.50
2019-05-23T05:43:01.808Z,25.60
2019-05-23T05:44:23.952Z,25.70
2019-05-23T05:45:45.359Z,25.70
2019-05-23T05:47:06.480Z,25.60
2019-05-23T05:48:28.142Z,25.70
2019-05-23T05:49:49.747Z,25.70
2019-05-23T05:51:11.317Z,25.70
2019-05-23T05:52:33.098Z,25.70
2019-05-23T05:53:54.526Z,25.80
2019-05-23T05:55:16.325Z,25.80
2019-05-23T05:56:38.541Z,25.80
2019-05-23T05:58:00.063Z,25.80
2019-05-23T05:59:23.599Z,25.80
2019-05-23T06:00:45.654Z,25.90
2019-05-23T06:02:07.645Z,25.90
2019-05-23T06:03:29.361Z,26.00
2019-05-23T06:04:50.947Z,26.00
2019-05-23T06:06:12.414Z,26.10
2019-05-23T06:07:33.903Z,26.20
2019-05-23T06:08:55.635Z,26.30
2019-05-23T06:10:17.743Z,26.40
2019-05-23T06:11:39.030Z,26.40
2019-05-23T06:13:02.364Z,26.50
2019-05-23T06:14:23.813Z,26.50
2019-05-23T06:16:57.755Z,26.60
2019-05-23T06:18:19.964Z,26.60
2019-05-23T06:19:41.789Z,26.50
2019-05-23T06:21:03.303Z,26.30
2019-05-23T06:22:25.011Z,26.00
2019-05-23T06:23:46.624Z,26.10
2019-05-23T06:25:08.724Z,26.20
2019-05-23T06:26:30.259Z,26.30
2019-05-23T06:27:51.983Z,26.40
2019-05-23T06:29:13.730Z,26.50
2019-05-23T06:30:35.491Z,26.60
2019-05-23T06:31:56.891Z,26.70
2019-05-23T06:33:23.480Z,26.80
2019-05-23T06:34:41.694Z,26.90
2019-05-23T06:36:04.459Z,26.90
2019-05-23T06:37:26.137Z,27.00
2019-05-23T06:38:47.655Z,27.10
2019-05-23T06:40:09.042Z,27.10
2019-05-23T06:41:30.568Z,27.20
2019-05-23T06:42:51.976Z,27.10
2019-05-23T06:44:14.307Z,26.90
2019-05-23T06:45:37.357Z,26.80
2019-05-23T06:46:58.770Z,26.80
2019-05-23T06:48:20.274Z,26.70
2019-05-23T06:49:41.277Z,26.80
2019-05-23T06:51:02.579Z,26.90
2019-05-23T06:52:24.238Z,27.00
2019-05-23T06:53:45.989Z,27.10
2019-05-23T06:55:07.566Z,27.20
2019-05-23T06:56:29.032Z,27.30
2019-05-23T06:57:50.647Z,27.30
2019-05-23T06:59:13.330Z,27.20
2019-05-23T07:01:15.669Z,27.20
2019-05-23T07:02:38.199Z,27.20
2019-05-23T07:04:01.116Z,27.40
2019-05-23T07:05:29.206Z,27.40
2019-05-23T07:07:31.566Z,27.50
2019-05-23T07:08:54.475Z,27.50
2019-05-23T07:10:15.817Z,27.50
2019-05-23T07:11:37.251Z,27.50
2019-05-23T07:12:58.639Z,27.50
2019-05-23T07:14:20.453Z,27.30
2019-05-23T07:15:42.271Z,27.10
2019-05-23T07:17:03.576Z,27.00
2019-05-23T07:18:25.707Z,27.10
2019-05-23T07:19:47.255Z,27.10
2019-05-23T07:21:08.828Z,27.10
2019-05-23T07:22:30.237Z,26.90
2019-05-23T07:23:51.955Z,26.80
2019-05-23T07:25:13.363Z,26.80
2019-05-23T07:26:34.981Z,26.80
2019-05-23T07:27:56.287Z,26.70
2019-05-23T07:29:18.232Z,26.70
2019-05-23T07:30:39.921Z,26.50
2019-05-23T07:32:03.671Z,26.40
2019-05-23T07:33:24.987Z,26.30
2019-05-23T07:34:47.319Z,26.10
2019-05-23T07:36:09.213Z,26.00
2019-05-23T07:37:30.749Z,26.00
2019-05-23T07:38:52.465Z,25.90
2019-05-23T07:40:13.995Z,25.80
2019-05-23T07:41:35.237Z,25.60
2019-05-23T07:42:56.774Z,25.60
2019-05-23T07:44:18.715Z,25.60
2019-05-23T07:45:40.074Z,25.60
2019-05-23T07:47:01.913Z,25.60
2019-05-23T07:48:24.483Z,25.70
2019-05-23T07:49:45.739Z,25.70
2019-05-23T07:51:07.249Z,25.70
2019-05-23T07:52:28.915Z,25.70
2019-05-23T07:53:50.928Z,25.70
2019-05-23T07:55:12.575Z,25.80
2019-05-23T07:56:34.260Z,25.80
2019-05-23T07:57:55.714Z,25.70
2019-05-23T07:59:17.280Z,25.60
2019-05-23T08:00:38.895Z,25.70
2019-05-23T08:02:03.895Z,25.80
2019-05-23T08:03:26.627Z,25.90
2019-05-23T08:04:48.035Z,25.90
2019-05-23T08:06:09.939Z,25.90
2019-05-23T08:07:32.847Z,25.80
2019-05-23T08:08:54.611Z,25.90
2019-05-23T08:10:32.530Z,25.80
2019-05-23T08:11:39.846Z,25.70
2019-05-23T08:13:01.506Z,25.70
2019-05-23T08:14:23.125Z,25.60
2019-05-23T08:15:44.488Z,25.60
2019-05-23T08:17:06.300Z,25.70
2019-05-23T08:18:28.062Z,25.70
2019-05-23T08:19:50.578Z,25.70
2019-05-23T08:21:13.725Z,25.70
2019-05-23T08:22:35.215Z,25.60
2019-05-23T08:23:57.535Z,25.60
2019-05-23T08:25:19.096Z,25.60
2019-05-23T08:26:40.720Z,25.60
2019-05-23T08:28:02.256Z,25.60
2019-05-23T08:29:26.650Z,25.60
2019-05-23T08:30:46.782Z,25.60
2019-05-23T08:32:08.295Z,25.60
2019-05-23T08:33:31.250Z,25.60
2019-05-23T08:34:52.848Z,25.60
2019-05-23T08:36:14.668Z,25.60
2019-05-23T08:37:36.396Z,25.60
2019-05-23T08:38:58.319Z,25.60
2019-05-23T08:40:20.027Z,25.60
2019-05-23T08:41:41.531Z,25.60
2019-05-23T08:43:03.015Z,25.50
2019-05-23T08:44:24.859Z,25.50
2019-05-23T08:45:46.580Z,25.60
2019-05-23T08:47:08.084Z,25.60
2019-05-23T08:48:29.366Z,25.60
2019-05-23T08:49:50.904Z,25.60
2019-05-23T08:51:12.244Z,25.60
2019-05-23T08:52:33.634Z,25.60
2019-05-23T08:53:55.336Z,25.60
2019-05-23T08:55:20.739Z,25.60
2019-05-23T08:56:42.248Z,25.50
2019-05-23T08:58:03.967Z,25.50
2019-05-23T08:59:25.680Z,25.50
2019-05-23T09:00:47.294Z,25.60
2019-05-23T09:02:08.808Z,25.60
2019-05-23T09:03:30.417Z,25.60
2019-05-23T09:05:04.456Z,25.60
2019-05-23T09:06:17.434Z,25.60
2019-05-23T09:07:38.984Z,25.60
2019-05-23T09:09:01.768Z,25.50
2019-05-23T09:10:23.514Z,25.50
2019-05-23T09:11:45.020Z,25.50
2019-05-23T09:13:06.807Z,25.60
2019-05-23T09:14:28.348Z,25.60
2019-05-23T09:15:52.915Z,25.60
2019-05-23T09:17:13.289Z,25.60
2019-05-23T09:18:34.945Z,25.60
2019-05-23T09:19:56.638Z,25.60
2019-05-23T09:21:18.354Z,25.70
2019-05-23T09:22:40.278Z,25.70
2019-05-23T09:24:01.991Z,25.80
2019-05-23T09:25:24.233Z,25.80
2019-05-23T09:26:46.346Z,25.80
2019-05-23T09:28:09.139Z,25.80
2019-05-23T09:29:31.110Z,25.80
2019-05-23T09:30:52.515Z,25.80
2019-05-23T09:32:13.925Z,25.80
2019-05-23T09:33:35.779Z,25.80
2019-05-23T09:34:57.766Z,25.80
2019-05-23T09:36:19.176Z,25.80
2019-05-23T09:37:40.587Z,25.80
2019-05-23T09:39:02.521Z,25.80
2019-05-23T09:40:24.631Z,25.80
2019-05-23T09:41:46.654Z,25.70
2019-05-23T09:43:07.761Z,25.60
2019-05-23T09:44:29.571Z,25.70
2019-05-23T09:45:51.270Z,25.70
2019-05-23T09:47:13.007Z,25.80
2019-05-23T09:48:34.784Z,25.80
2019-05-23T09:49:56.645Z,25.80
2019-05-23T09:51:18.271Z,25.70
2019-05-23T09:52:40.894Z,25.60
2019-05-23T09:54:02.710Z,25.50
2019-05-23T09:55:24.732Z,25.50
2019-05-23T09:56:46.938Z,25.40
2019-05-23T09:58:08.412Z,25.40
2019-05-23T09:59:29.778Z,25.40
2019-05-23T10:00:51.186Z,25.30
2019-05-23T10:02:13.007Z,25.40
2019-05-23T10:03:34.900Z,25.40
2019-05-23T10:04:56.441Z,25.50
2019-05-23T10:06:19.455Z,25.40
2019-05-23T10:07:41.204Z,25.40
2019-05-23T10:09:03.017Z,25.50
2019-05-23T10:10:24.536Z,25.60
2019-05-23T10:11:45.912Z,25.50
2019-05-23T10:13:07.584Z,25.50
2019-05-23T10:14:29.163Z,25.50
2019-05-23T10:15:50.787Z,25.60
2019-05-23T10:17:12.493Z,25.40
2019-05-23T10:18:34.284Z,25.40
2019-05-23T10:19:55.721Z,25.30
2019-05-23T10:21:17.333Z,25.20
2019-05-23T10:22:38.726Z,25.10
2019-05-23T10:24:00.765Z,25.20
2019-05-23T10:25:23.198Z,25.30
2019-05-23T10:26:44.914Z,25.40
2019-05-23T10:28:06.483Z,25.40
2019-05-23T10:29:28.116Z,25.40
2019-05-23T10:30:49.862Z,25.50
2019-05-23T10:32:11.488Z,25.40
2019-05-23T10:33:32.878Z,25.40
2019-05-23T10:34:54.492Z,25.40
2019-05-23T10:36:15.903Z,25.40
2019-05-23T10:37:37.196Z,25.50
2019-05-23T10:38:58.691Z,25.50
2019-05-23T10:40:20.544Z,25.40
2019-05-23T10:41:42.126Z,25.40
2019-05-23T10:43:03.947Z,25.40
2019-05-23T10:44:25.485Z,25.40
2019-05-23T10:45:47.298Z,25.40
2019-05-23T10:47:09.127Z,25.40
2019-05-23T10:48:30.844Z,25.30
2019-05-23T10:49:52.034Z,25.30
2019-05-23T10:51:13.752Z,25.30
2019-05-23T10:52:35.648Z,25.30
2019-05-23T10:53:57.796Z,25.30
2019-05-23T10:55:19.308Z,25.40
2019-05-23T10:56:41.125Z,25.40
2019-05-23T10:58:03.457Z,25.30
2019-05-23T10:59:25.050Z,25.20
2019-05-23T11:00:46.684Z,25.10
2019-05-23T11:02:08.069Z,25.20
2019-05-23T11:03:29.808Z,25.20
2019-05-23T11:04:51.607Z,25.20
2019-05-23T11:06:16.690Z,25.20
2019-05-23T11:07:37.003Z,25.20
2019-05-23T11:08:58.913Z,25.00
2019-05-23T11:10:21.459Z,24.90
2019-05-23T11:11:42.790Z,24.80
2019-05-23T11:13:04.796Z,24.70
2019-05-23T11:14:27.239Z,24.60
2019-05-23T11:15:48.939Z,24.70
2019-05-23T11:17:10.860Z,24.80
2019-05-23T11:18:33.474Z,24.70
2019-05-23T11:19:55.210Z,24.80
2019-05-23T11:21:16.835Z,24.90
2019-05-23T11:22:38.516Z,24.90
2019-05-23T11:24:00.155Z,24.90
2019-05-23T11:25:22.073Z,24.50
2019-05-23T11:26:43.997Z,24.40
2019-05-23T11:28:07.642Z,24.50
2019-05-23T11:29:29.576Z,24.50
2019-05-23T11:30:51.292Z,24.40
2019-05-23T11:32:14.418Z,24.50
2019-05-23T11:33:36.160Z,24.20
2019-05-23T11:34:57.546Z,24.30
2019-05-23T11:36:34.475Z,24.30
2019-05-23T11:37:44.073Z,24.30
2019-05-23T11:39:08.964Z,24.30
2019-05-23T11:40:33.524Z,24.40
2019-05-23T11:41:53.697Z,24.50
2019-05-23T11:43:14.991Z,24.60
2019-05-23T11:44:36.881Z,24.70
2019-05-23T11:45:59.187Z,24.60
2019-05-23T11:47:22.540Z,24.70
2019-05-23T11:48:45.380Z,24.70
2019-05-23T11:50:07.748Z,24.70
2019-05-23T11:51:29.522Z,24.50
2019-05-23T11:52:51.035Z,24.50
2019-05-23T11:54:12.690Z,24.60
2019-05-23T11:55:34.545Z,24.70
2019-05-23T11:56:56.069Z,24.70
2019-05-23T11:58:17.385Z,24.80
2019-05-23T11:59:39.741Z,24.80
2019-05-23T12:01:19.642Z,24.80
2019-05-23T12:02:34.589Z,24.80
2019-05-23T12:03:56.028Z,24.70
2019-05-23T12:05:17.671Z,24.80
2019-05-23T12:06:54.604Z,24.90
2019-05-23T12:08:02.605Z,24.90
2019-05-23T12:09:25.218Z,24.90
2019-05-23T12:10:46.654Z,24.90
2019-05-23T12:12:08.355Z,25.00
2019-05-23T12:13:30.372Z,25.00
2019-05-23T12:14:52.104Z,25.10
2019-05-23T12:16:13.616Z,25.00
2019-05-23T12:17:35.331Z,25.10
2019-05-23T12:18:57.258Z,25.00
2019-05-23T12:20:18.968Z,25.00
2019-05-23T12:21:40.376Z,25.00
2019-05-23T12:23:09.446Z,25.00
2019-05-23T12:24:25.427Z,24.90
2019-05-23T12:25:46.956Z,24.90
2019-05-23T12:27:08.547Z,24.90
2019-05-23T12:28:29.978Z,24.90
2019-05-23T12:29:51.492Z,24.90
2019-05-23T12:31:13.717Z,24.90
2019-05-23T12:32:35.441Z,24.90
2019-05-23T12:33:58.781Z,24.90
2019-05-23T12:35:20.079Z,24.90
2019-05-23T12:36:41.810Z,24.80
2019-05-23T12:38:03.517Z,24.80
2019-05-23T12:39:24.933Z,24.80
2019-05-23T12:40:46.342Z,24.70
2019-05-23T12:42:08.109Z,24.70
2019-05-23T12:43:30.671Z,24.70
2019-05-23T12:44:52.003Z,24.70
2019-05-23T12:46:13.478Z,24.70
2019-05-23T12:47:35.417Z,24.70
2019-05-23T12:48:58.275Z,24.60
2019-05-23T12:50:19.991Z,24.60
2019-05-23T12:51:41.892Z,24.60
2019-05-23T12:53:03.832Z,24.60
2019-05-23T12:54:25.549Z,24.50
2019-05-23T12:55:47.060Z,24.50
2019-05-23T12:57:08.674Z,24.60
2019-05-23T12:58:30.387Z,24.60
2019-05-23T12:59:52.489Z,24.50
2019-05-23T13:01:14.881Z,24.50
2019-05-23T13:02:36.357Z,24.50
2019-05-23T13:03:57.950Z,24.40
2019-05-23T13:05:19.785Z,24.30
2019-05-23T13:06:41.401Z,24.40
2019-05-23T13:08:06.049Z,24.40
2019-05-23T13:09:26.299Z,24.40
2019-05-23T13:10:48.001Z,24.40
2019-05-23T13:12:09.662Z,24.50
2019-05-23T13:13:31.309Z,24.50
2019-05-23T13:14:57.701Z,24.50
2019-05-23T13:16:16.483Z,24.50
2019-05-23T13:17:38.925Z,24.60
2019-05-23T13:19:00.129Z,24.60
2019-05-23T13:20:22.038Z,24.60
2019-05-23T13:21:43.551Z,24.70
2019-05-23T13:23:05.223Z,24.70
2019-05-23T13:24:27.188Z,24.70
2019-05-23T13:25:49.228Z,24.70
2019-05-23T13:27:10.908Z,24.50
2019-05-23T13:28:32.538Z,24.50
2019-05-23T13:29:54.460Z,24.30
2019-05-23T13:31:15.765Z,24.30
2019-05-23T13:32:37.245Z,24.30
2019-05-23T13:33:59.198Z,24.30
2019-05-23T13:35:21.117Z,24.40
2019-05-23T13:36:42.549Z,24.30
2019-05-23T13:38:04.235Z,24.30
2019-05-23T13:39:25.643Z,24.40
2019-05-23T13:40:47.264Z,24.30
2019-05-23T13:42:08.678Z,24.30
2019-05-23T13:43:30.389Z,24.20
2019-05-23T13:44:52.005Z,24.10
2019-05-23T13:46:13.920Z,24.10
2019-05-23T13:47:35.721Z,24.10
2019-05-23T13:48:57.547Z,24.10
2019-05-23T13:50:19.655Z,24.10
2019-05-23T13:51:41.509Z,24.00
2019-05-23T13:53:03.298Z,24.10
2019-05-23T13:54:25.034Z,24.20
2019-05-23T13:55:46.546Z,24.30
2019-05-23T13:57:08.582Z,24.20
2019-05-23T13:58:30.083Z,24.10
2019-05-23T13:59:51.692Z,24.10
2019-05-23T14:01:13.001Z,24.20
2019-05-23T14:02:34.441Z,24.20
2019-05-23T14:03:57.010Z,24.20
2019-05-23T14:05:19.601Z,24.20
2019-05-23T14:06:41.606Z,24.20
2019-05-23T14:08:12.183Z,24.30
2019-05-23T14:09:26.467Z,24.30
2019-05-23T14:10:48.184Z,24.30
2019-05-23T14:12:24.983Z,24.40
2019-05-23T14:13:32.977Z,24.40
2019-05-23T14:14:54.560Z,24.20
2019-05-23T14:16:16.321Z,24.20
2019-05-23T14:17:38.804Z,24.20
2019-05-23T14:19:00.734Z,24.20
2019-05-23T14:20:22.354Z,23.90
2019-05-23T14:21:44.061Z,23.90
2019-05-23T14:23:05.661Z,23.90
2019-05-23T14:24:26.979Z,23.90
2019-05-23T14:25:48.493Z,23.90
2019-05-23T14:27:10.413Z,23.90
2019-05-23T14:28:32.188Z,23.80
2019-05-23T14:29:53.638Z,23.80
2019-05-23T14:31:15.414Z,23.70
2019-05-23T14:32:37.016Z,23.80
2019-05-23T14:33:58.685Z,23.80
2019-05-23T14:35:20.300Z,23.80
2019-05-23T14:36:42.194Z,23.80
2019-05-23T14:38:03.732Z,23.80
2019-05-23T14:39:25.275Z,23.80
2019-05-23T14:40:47.238Z,23.80
2019-05-23T14:42:08.663Z,23.80
2019-05-23T14:43:30.491Z,23.90
2019-05-23T14:44:51.795Z,23.90
2019-05-23T14:46:13.514Z,23.90
2019-05-23T14:47:34.814Z,23.90
2019-05-23T14:48:57.147Z,23.90
2019-05-23T14:50:18.865Z,24.00
2019-05-23T14:51:40.989Z,23.90
2019-05-23T14:53:03.013Z,23.90
2019-05-23T14:54:25.009Z,23.90
2019-05-23T14:55:46.956Z,24.00
2019-05-23T14:57:09.259Z,23.90
2019-05-23T14:58:31.923Z,24.00
2019-05-23T14:59:53.446Z,24.10
2019-05-23T15:01:14.832Z,24.10
2019-05-23T15:02:36.149Z,24.10
2019-05-23T15:03:57.866Z,24.10
2019-05-23T15:05:19.657Z,24.00
2019-05-23T15:06:41.295Z,24.10
2019-05-23T15:08:03.018Z,24.10
2019-05-23T15:09:24.843Z,24.10
2019-05-23T15:10:46.142Z,24.00
2019-05-23T15:12:08.050Z,24.00
2019-05-23T15:13:29.568Z,24.00
2019-05-23T15:14:51.292Z,24.10
2019-05-23T15:16:12.496Z,24.00
2019-05-23T15:17:34.298Z,23.90
2019-05-23T15:18:56.125Z,24.00
2019-05-23T15:20:17.635Z,24.10
2019-05-23T15:21:39.246Z,24.10
2019-05-23T15:23:00.656Z,24.10
2019-05-23T15:24:22.271Z,24.10
2019-05-23T15:25:43.781Z,24.00
2019-05-23T15:27:05.276Z,23.90
2019-05-23T15:28:26.913Z,23.90
2019-05-23T15:29:48.519Z,23.90
2019-05-23T15:31:09.936Z,24.00
2019-05-23T15:32:31.441Z,24.10
2019-05-23T15:33:52.872Z,24.10
2019-05-23T15:35:14.666Z,24.20
2019-05-23T15:36:36.769Z,24.30
2019-05-23T15:37:58.608Z,24.30
2019-05-23T15:39:20.428Z,24.10
2019-05-23T15:40:41.719Z,24.10
2019-05-23T15:42:03.623Z,24.10
2019-05-23T15:43:25.283Z,24.20
2019-05-23T15:44:47.468Z,24.00
2019-05-23T15:46:09.035Z,24.10
2019-05-23T15:47:31.538Z,24.10
2019-05-23T15:48:53.152Z,24.10
2019-05-23T15:50:16.403Z,24.10
2019-05-23T15:51:37.770Z,24.10
2019-05-23T15:52:59.836Z,24.10
2019-05-23T15:54:21.421Z,24.00
2019-05-23T15:55:43.165Z,24.10
2019-05-23T15:57:05.002Z,24.00
2019-05-23T15:58:26.392Z,23.90
2019-05-23T15:59:48.293Z,23.90
2019-05-23T16:01:09.671Z,24.00
2019-05-23T16:02:31.853Z,23.90
2019-05-23T16:03:53.459Z,23.90
2019-05-23T16:05:15.485Z,23.90
2019-05-23T16:06:37.071Z,24.20
2019-05-23T16:07:58.505Z,24.30
2019-05-23T16:09:29.684Z,24.40
2019-05-23T16:10:43.036Z,24.50
2019-05-23T16:12:04.760Z,24.60
2019-05-23T16:13:26.471Z,24.60
2019-05-23T16:14:48.170Z,24.60
2019-05-23T16:16:09.681Z,24.70
2019-05-23T16:17:31.090Z,24.70
2019-05-23T16:18:52.748Z,24.80
2019-05-23T16:20:14.458Z,24.80
2019-05-23T16:21:36.365Z,24.80
2019-05-23T16:22:58.309Z,24.80
2019-05-23T16:24:19.991Z,24.90
2019-05-23T16:25:41.937Z,24.90
2019-05-23T16:27:03.652Z,24.90
2019-05-23T16:28:25.163Z,24.90
2019-05-23T16:29:46.583Z,24.90
2019-05-23T16:31:07.910Z,25.00
2019-05-23T16:32:29.284Z,25.00
2019-05-23T16:33:52.604Z,25.00
2019-05-23T16:35:14.017Z,25.00
2019-05-23T16:36:35.661Z,25.00
2019-05-23T16:37:57.161Z,25.10
2019-05-23T16:39:19.225Z,25.10
2019-05-23T16:40:41.322Z,25.10
2019-05-23T16:42:02.831Z,25.10
2019-05-23T16:43:24.557Z,25.10
2019-05-23T16:44:46.160Z,25.10
2019-05-23T16:46:08.208Z,25.10
2019-05-23T16:47:30.006Z,25.20
2019-05-23T16:48:51.411Z,25.10
2019-05-23T16:50:12.690Z,25.20
2019-05-23T16:51:34.195Z,25.20
2019-05-23T16:52:56.148Z,25.10
2019-05-23T16:54:17.762Z,25.20
2019-05-23T16:55:39.078Z,25.20
2019-05-23T16:57:00.970Z,25.10
2019-05-23T16:58:23.386Z,25.20
2019-05-23T16:59:44.910Z,25.20
2019-05-23T17:01:06.342Z,25.20
2019-05-23T17:02:27.953Z,25.20
2019-05-23T17:03:49.672Z,25.20
2019-05-23T17:05:13.725Z,25.20
2019-05-23T17:06:34.717Z,25.20
2019-05-23T17:07:58.283Z,25.20
2019-05-23T17:09:20.014Z,25.20
2019-05-23T17:10:41.404Z,25.20
2019-05-23T17:12:03.249Z,25.20
2019-05-23T17:13:28.393Z,25.20
2019-05-23T17:14:51.732Z,25.20
2019-05-23T17:16:11.768Z,25.20
2019-05-23T17:17:56.938Z,25.20
2019-05-23T17:18:57.809Z,25.20
2019-05-23T17:20:20.441Z,25.20
2019-05-23T17:21:42.603Z,25.20
2019-05-23T17:23:04.339Z,25.20
2019-05-23T17:24:26.238Z,25.20
2019-05-23T17:25:47.976Z,25.20
2019-05-23T17:27:09.413Z,25.20
2019-05-23T17:28:31.210Z,25.20
2019-05-23T17:29:52.509Z,25.20
2019-05-23T17:31:14.019Z,25.20
2019-05-23T17:32:35.839Z,25.20
2019-05-23T17:33:57.758Z,25.20
2019-05-23T17:35:19.180Z,25.20
2019-05-23T17:36:40.864Z,25.20
2019-05-23T17:38:02.607Z,25.20